sensor_id;sensor_type;location;lat;lon;timestamp;P1;durP1;ratioP1;P2;durP2;ratioP2
74523;SDS011;63074;44.696;10.358;2022-08-25T08:14:19;2.90;;;1.48;;
74523;SDS011;63074;44.696;10.358;2022-08-25T08:16:44;3.08;;;1.15;;
74523;SDS011;63074;44.696;10.358;2022-08-25T08:19:10;2.35;;;1.10;;
74523;SDS011;63074;44.696;10.358;2022-08-25T08:21:38;2.08;;;1.35;;
74523;SDS011;63074;44.696;10.358;2022-08-25T08:24:04;2.53;;;1.00;;
74523;SDS011;63074;44.696;10.358;2022-08-25T08:26:30;2.13;;;1.02;;
74523;SDS011;63074;44.696;10.358;2022-08-25T08:28:55;2.63;;;1.42;;
74523;SDS011;63074;44.696;10.358;2022-08-25T08:31:22;2.22;;;1.20;;
74523;SDS011;63074;44.696;10.358;2022-08-25T08:33:50;2.75;;;1.05;;
74523;SDS011;63074;44.696;10.358;2022-08-25T08:36:17;4.00;;;1.67;;
74523;SDS011;63074;44.696;10.358;2022-08-25T08:38:43;3.28;;;1.10;;
74523;SDS011;63074;44.696;10.358;2022-08-25T08:44:23;5.15;;;1.17;;
74523;SDS011;63074;44.696;10.358;2022-08-25T08:56:04;2.63;;;1.15;;
74523;SDS011;63074;44.696;10.358;2022-08-25T08:58:46;1.88;;;0.93;;
74523;SDS011;63074;44.696;10.358;2022-08-25T09:01:18;3.05;;;1.25;;
74523;SDS011;63074;44.696;10.358;2022-08-25T09:03:57;3.45;;;1.20;;
74523;SDS011;63074;44.696;10.358;2022-08-25T09:06:40;2.88;;;1.63;;
74523;SDS011;63074;44.696;10.358;2022-08-25T09:09:13;4.40;;;2.15;;
74523;SDS011;63074;44.696;10.358;2022-08-25T09:12:18;4.50;;;1.25;;
74523;SDS011;63074;44.696;10.358;2022-08-25T09:14:41;2.17;;;1.15;;
74523;SDS011;63074;44.696;10.358;2022-08-25T09:17:17;4.20;;;1.40;;
74523;SDS011;63074;44.696;10.358;2022-08-25T09:20:06;3.58;;;1.58;;
74523;SDS011;63074;44.696;10.358;2022-08-25T09:22:52;4.38;;;2.35;;
74523;SDS011;63074;44.696;10.358;2022-08-25T09:28:07;2.63;;;1.20;;
74523;SDS011;63074;44.696;10.358;2022-08-25T09:30:40;5.70;;;1.33;;
74523;SDS011;63074;44.696;10.358;2022-08-25T09:33:23;2.97;;;1.42;;
74523;SDS011;63074;44.696;10.358;2022-08-25T09:35:51;5.05;;;2.67;;
74523;SDS011;63074;44.696;10.358;2022-08-25T09:38:18;2.40;;;1.40;;
74523;SDS011;63074;44.696;10.358;2022-08-25T09:40:48;4.22;;;2.10;;
74523;SDS011;63074;44.696;10.358;2022-08-25T09:43:19;3.20;;;1.33;;
74523;SDS011;63074;44.696;10.358;2022-08-25T09:45:59;3.38;;;1.23;;
74523;SDS011;63074;44.696;10.358;2022-08-25T09:48:41;2.38;;;1.10;;
74523;SDS011;63074;44.696;10.358;2022-08-25T09:53:36;3.50;;;1.95;;
74523;SDS011;63074;44.696;10.358;2022-08-25T09:56:12;4.38;;;2.30;;
74523;SDS011;63074;44.696;10.358;2022-08-25T09:58:38;5.72;;;2.42;;
74523;SDS011;63074;44.696;10.358;2022-08-25T10:04:26;3.60;;;1.42;;
74523;SDS011;63074;44.696;10.358;2022-08-25T10:06:58;5.90;;;3.25;;
74523;SDS011;63074;44.696;10.358;2022-08-25T10:11:55;3.47;;;1.40;;
74523;SDS011;63074;44.696;10.358;2022-08-25T10:14:32;3.20;;;1.52;;
74523;SDS011;63074;44.696;10.358;2022-08-25T10:19:41;2.95;;;1.33;;
74523;SDS011;63074;44.696;10.358;2022-08-25T10:22:08;2.67;;;1.00;;
74523;SDS011;63074;44.696;10.358;2022-08-25T10:24:45;2.80;;;1.67;;
74523;SDS011;63074;44.696;10.358;2022-08-25T10:27:17;3.53;;;1.20;;
74523;SDS011;63074;44.696;10.358;2022-08-25T10:38:27;2.95;;;1.70;;
74523;SDS011;63074;44.696;10.358;2022-08-25T10:41:23;2.13;;;1.20;;
74523;SDS011;63074;44.696;10.358;2022-08-25T10:49:53;3.03;;;1.23;;
74523;SDS011;63074;44.696;10.358;2022-08-25T10:58:10;3.70;;;1.25;;
74523;SDS011;63074;44.696;10.358;2022-08-25T11:00:39;3.35;;;1.42;;
74523;SDS011;63074;44.696;10.358;2022-08-25T11:03:28;2.75;;;0.93;;
74523;SDS011;63074;44.696;10.358;2022-08-25T11:06:22;2.67;;;1.58;;
74523;SDS011;63074;44.696;10.358;2022-08-25T11:15:12;2.70;;;1.38;;
74523;SDS011;63074;44.696;10.358;2022-08-25T11:18:16;4.45;;;1.38;;
74523;SDS011;63074;44.696;10.358;2022-08-25T11:20:39;2.47;;;1.33;;
74523;SDS011;63074;44.696;10.358;2022-08-25T11:30:55;3.00;;;1.38;;
74523;SDS011;63074;44.696;10.358;2022-08-25T11:33:26;2.10;;;1.33;;
74523;SDS011;63074;44.696;10.358;2022-08-25T11:35:56;3.35;;;1.65;;
74523;SDS011;63074;44.696;10.358;2022-08-25T11:41:14;3.10;;;1.63;;
74523;SDS011;63074;44.696;10.358;2022-08-25T11:52:02;3.10;;;1.38;;
74523;SDS011;63074;44.696;10.358;2022-08-25T11:57:50;2.47;;;1.40;;
74523;SDS011;63074;44.696;10.358;2022-08-25T12:15:27;2.92;;;1.65;;
74523;SDS011;63074;44.696;10.358;2022-08-25T12:23:28;4.22;;;1.73;;
74523;SDS011;63074;44.696;10.358;2022-08-25T12:28:46;3.38;;;1.67;;
74523;SDS011;63074;44.696;10.358;2022-08-25T12:31:24;3.72;;;1.60;;
74523;SDS011;63074;44.696;10.358;2022-08-25T12:37:16;2.13;;;1.33;;
74523;SDS011;63074;44.696;10.358;2022-08-25T12:48:39;1.80;;;1.08;;
74523;SDS011;63074;44.696;10.358;2022-08-25T12:53:34;2.55;;;1.23;;
74523;SDS011;63074;44.696;10.358;2022-08-25T12:58:54;3.53;;;1.48;;
74523;SDS011;63074;44.696;10.358;2022-08-25T13:13:02;2.40;;;1.42;;
74523;SDS011;63074;44.696;10.358;2022-08-25T13:18:39;3.30;;;1.55;;
74523;SDS011;63074;44.696;10.358;2022-08-25T13:23:36;3.88;;;1.77;;
74523;SDS011;63074;44.696;10.358;2022-08-25T13:26:06;4.00;;;1.70;;
74523;SDS011;63074;44.696;10.358;2022-08-25T13:28:36;4.05;;;1.50;;
74523;SDS011;63074;44.696;10.358;2022-08-25T13:31:07;2.72;;;1.42;;
74523;SDS011;63074;44.696;10.358;2022-08-25T13:33:51;3.58;;;1.70;;
74523;SDS011;63074;44.696;10.358;2022-08-25T13:36:19;3.17;;;1.98;;
74523;SDS011;63074;44.696;10.358;2022-08-25T13:39:11;5.03;;;1.95;;
74523;SDS011;63074;44.696;10.358;2022-08-25T13:41:42;3.42;;;1.95;;
74523;SDS011;63074;44.696;10.358;2022-08-25T13:44:13;4.00;;;1.27;;
74523;SDS011;63074;44.696;10.358;2022-08-25T13:46:42;3.17;;;1.52;;
74523;SDS011;63074;44.696;10.358;2022-08-25T13:49:09;3.05;;;1.80;;
74523;SDS011;63074;44.696;10.358;2022-08-25T13:51:36;4.18;;;1.85;;
74523;SDS011;63074;44.696;10.358;2022-08-25T13:54:07;2.33;;;1.45;;
74523;SDS011;63074;44.696;10.358;2022-08-25T13:56:47;2.03;;;1.10;;
74523;SDS011;63074;44.696;10.358;2022-08-25T13:59:19;3.40;;;1.38;;
74523;SDS011;63074;44.696;10.358;2022-08-25T14:01:45;4.03;;;1.48;;
74523;SDS011;63074;44.696;10.358;2022-08-25T14:04:26;2.20;;;1.23;;
74523;SDS011;63074;44.696;10.358;2022-08-25T14:09:49;3.20;;;1.83;;
74523;SDS011;63074;44.696;10.358;2022-08-25T14:20:42;2.45;;;1.13;;
74523;SDS011;63074;44.696;10.358;2022-08-25T14:23:15;2.40;;;1.50;;
74523;SDS011;63074;44.696;10.358;2022-08-25T14:25:53;4.65;;;1.70;;
74523;SDS011;63074;44.696;10.358;2022-08-25T14:28:22;2.60;;;1.38;;
74523;SDS011;63074;44.696;10.358;2022-08-25T14:30:57;3.03;;;1.55;;
74523;SDS011;63074;44.696;10.358;2022-08-25T14:33:32;3.25;;;1.70;;
74523;SDS011;63074;44.696;10.358;2022-08-25T14:36:02;3.00;;;1.67;;
74523;SDS011;63074;44.696;10.358;2022-08-25T14:38:30;2.30;;;1.77;;
74523;SDS011;63074;44.696;10.358;2022-08-25T14:40:55;3.22;;;1.58;;
74523;SDS011;63074;44.696;10.358;2022-08-25T14:43:21;5.32;;;1.52;;
74523;SDS011;63074;44.696;10.358;2022-08-25T14:45:47;3.85;;;2.17;;
74523;SDS011;63074;44.696;10.358;2022-08-25T14:48:22;3.72;;;1.98;;
74523;SDS011;63074;44.696;10.358;2022-08-25T14:50:59;2.28;;;1.48;;
74523;SDS011;63074;44.696;10.358;2022-08-25T14:53:25;3.60;;;1.60;;
74523;SDS011;63074;44.696;10.358;2022-08-25T14:55:51;2.95;;;1.80;;
74523;SDS011;63074;44.696;10.358;2022-08-25T14:58:22;2.40;;;1.45;;
74523;SDS011;63074;44.696;10.358;2022-08-25T15:00:48;3.10;;;1.73;;
74523;SDS011;63074;44.696;10.358;2022-08-25T15:03:20;3.83;;;1.45;;
74523;SDS011;63074;44.696;10.358;2022-08-25T15:05:58;3.90;;;1.40;;
74523;SDS011;63074;44.696;10.358;2022-08-25T15:08:25;2.60;;;1.80;;
74523;SDS011;63074;44.696;10.358;2022-08-25T15:11:18;2.40;;;1.40;;
74523;SDS011;63074;44.696;10.358;2022-08-25T15:13:44;2.70;;;1.75;;
74523;SDS011;63074;44.696;10.358;2022-08-25T15:16:17;2.88;;;1.50;;
74523;SDS011;63074;44.696;10.358;2022-08-25T15:18:55;3.47;;;1.48;;
74523;SDS011;63074;44.696;10.358;2022-08-25T15:21:24;3.20;;;1.38;;
74523;SDS011;63074;44.696;10.358;2022-08-25T15:23:49;4.47;;;2.03;;
74523;SDS011;63074;44.696;10.358;2022-08-25T15:26:15;3.90;;;1.50;;
74523;SDS011;63074;44.696;10.358;2022-08-25T15:28:46;4.18;;;1.63;;
74523;SDS011;63074;44.696;10.358;2022-08-25T15:31:15;2.72;;;1.58;;
74523;SDS011;63074;44.696;10.358;2022-08-25T15:33:41;2.85;;;1.65;;
74523;SDS011;63074;44.696;10.358;2022-08-25T15:36:09;2.97;;;1.75;;
74523;SDS011;63074;44.696;10.358;2022-08-25T15:38:41;4.63;;;1.50;;
74523;SDS011;63074;44.696;10.358;2022-08-25T15:41:08;2.33;;;1.30;;
74523;SDS011;63074;44.696;10.358;2022-08-25T15:43:35;3.08;;;1.42;;
74523;SDS011;63074;44.696;10.358;2022-08-25T15:46:02;2.45;;;1.73;;
74523;SDS011;63074;44.696;10.358;2022-08-25T15:48:29;3.05;;;1.52;;
74523;SDS011;63074;44.696;10.358;2022-08-25T15:50:56;2.88;;;1.38;;
74523;SDS011;63074;44.696;10.358;2022-08-25T15:53:25;2.78;;;1.50;;
74523;SDS011;63074;44.696;10.358;2022-08-25T15:55:53;3.03;;;1.33;;
74523;SDS011;63074;44.696;10.358;2022-08-25T15:58:21;3.60;;;2.00;;
74523;SDS011;63074;44.696;10.358;2022-08-25T16:00:47;3.22;;;1.77;;
74523;SDS011;63074;44.696;10.358;2022-08-25T16:03:13;3.25;;;1.88;;
74523;SDS011;63074;44.696;10.358;2022-08-25T16:05:39;2.90;;;1.52;;
74523;SDS011;63074;44.696;10.358;2022-08-25T16:08:07;2.88;;;2.03;;
74523;SDS011;63074;44.696;10.358;2022-08-25T16:10:33;3.28;;;1.83;;
74523;SDS011;63074;44.696;10.358;2022-08-25T16:13:01;2.97;;;1.80;;
74523;SDS011;63074;44.696;10.358;2022-08-25T16:15:27;3.47;;;1.75;;
74523;SDS011;63074;44.696;10.358;2022-08-25T16:17:53;3.53;;;1.75;;
74523;SDS011;63074;44.696;10.358;2022-08-25T16:20:19;3.90;;;1.60;;
74523;SDS011;63074;44.696;10.358;2022-08-25T16:22:45;3.83;;;1.65;;
74523;SDS011;63074;44.696;10.358;2022-08-25T16:25:11;2.92;;;2.08;;
74523;SDS011;63074;44.696;10.358;2022-08-25T16:27:39;2.22;;;1.52;;
74523;SDS011;63074;44.696;10.358;2022-08-25T16:30:08;3.78;;;1.58;;
74523;SDS011;63074;44.696;10.358;2022-08-25T16:32:36;3.22;;;1.80;;
74523;SDS011;63074;44.696;10.358;2022-08-25T16:35:09;2.30;;;1.52;;
74523;SDS011;63074;44.696;10.358;2022-08-25T16:37:39;4.40;;;1.83;;
74523;SDS011;63074;44.696;10.358;2022-08-25T16:40:05;3.22;;;1.67;;
74523;SDS011;63074;44.696;10.358;2022-08-25T16:42:40;3.75;;;1.83;;
74523;SDS011;63074;44.696;10.358;2022-08-25T16:45:06;6.00;;;2.13;;
74523;SDS011;63074;44.696;10.358;2022-08-25T16:47:35;3.83;;;1.58;;
74523;SDS011;63074;44.696;10.358;2022-08-25T16:50:05;5.07;;;2.80;;
74523;SDS011;63074;44.696;10.358;2022-08-25T16:52:35;5.90;;;2.78;;
74523;SDS011;63074;44.696;10.358;2022-08-25T16:58:50;5.40;;;2.55;;
74523;SDS011;63074;44.696;10.358;2022-08-25T17:05:18;3.67;;;2.13;;
74523;SDS011;63074;44.696;10.358;2022-08-25T17:11:08;4.68;;;2.30;;
74523;SDS011;63074;44.696;10.358;2022-08-25T17:39:48;6.55;;;2.63;;
74523;SDS011;63074;44.696;10.358;2022-08-25T17:42:13;4.13;;;2.15;;
74523;SDS011;63074;44.696;10.358;2022-08-25T17:44:39;4.88;;;1.98;;
74523;SDS011;63074;44.696;10.358;2022-08-25T17:47:05;4.15;;;2.05;;
74523;SDS011;63074;44.696;10.358;2022-08-25T17:49:31;5.53;;;2.50;;
74523;SDS011;63074;44.696;10.358;2022-08-25T17:51:57;6.32;;;2.42;;
74523;SDS011;63074;44.696;10.358;2022-08-25T17:54:23;4.70;;;2.45;;
74523;SDS011;63074;44.696;10.358;2022-08-25T17:56:49;4.40;;;2.65;;
74523;SDS011;63074;44.696;10.358;2022-08-25T17:59:14;4.55;;;2.85;;
74523;SDS011;63074;44.696;10.358;2022-08-25T18:01:42;5.30;;;2.83;;
74523;SDS011;63074;44.696;10.358;2022-08-25T18:04:08;3.53;;;2.33;;
74523;SDS011;63074;44.696;10.358;2022-08-25T18:06:35;23.75;;;17.20;;
74523;SDS011;63074;44.696;10.358;2022-08-25T18:09:02;60.95;;;45.85;;
74523;SDS011;63074;44.696;10.358;2022-08-25T18:11:29;41.15;;;26.75;;
74523;SDS011;63074;44.696;10.358;2022-08-25T18:13:55;27.23;;;20.45;;
74523;SDS011;63074;44.696;10.358;2022-08-25T18:16:22;19.38;;;12.57;;
74523;SDS011;63074;44.696;10.358;2022-08-25T18:18:48;10.23;;;7.47;;
74523;SDS011;63074;44.696;10.358;2022-08-25T18:21:17;9.30;;;6.18;;
74523;SDS011;63074;44.696;10.358;2022-08-25T18:23:45;7.57;;;5.30;;
74523;SDS011;63074;44.696;10.358;2022-08-25T18:26:12;6.30;;;4.78;;
74523;SDS011;63074;44.696;10.358;2022-08-25T18:28:40;6.40;;;3.65;;
74523;SDS011;63074;44.696;10.358;2022-08-25T18:31:06;5.43;;;3.63;;
74523;SDS011;63074;44.696;10.358;2022-08-25T18:33:32;4.70;;;3.03;;
74523;SDS011;63074;44.696;10.358;2022-08-25T18:36:02;5.88;;;2.60;;
74523;SDS011;63074;44.696;10.358;2022-08-25T18:38:31;3.78;;;2.60;;
74523;SDS011;63074;44.696;10.358;2022-08-25T18:41:15;3.72;;;2.60;;
74523;SDS011;63074;44.696;10.358;2022-08-25T18:43:41;4.80;;;1.95;;
74523;SDS011;63074;44.696;10.358;2022-08-25T18:46:06;6.40;;;2.08;;
74523;SDS011;63074;44.696;10.358;2022-08-25T18:48:32;3.45;;;2.35;;
74523;SDS011;63074;44.696;10.358;2022-08-25T18:50:58;4.05;;;2.25;;
74523;SDS011;63074;44.696;10.358;2022-08-25T18:53:24;4.97;;;2.67;;
74523;SDS011;63074;44.696;10.358;2022-08-25T18:55:52;3.58;;;1.90;;
74523;SDS011;63074;44.696;10.358;2022-08-25T18:58:19;3.92;;;2.08;;
74523;SDS011;63074;44.696;10.358;2022-08-25T19:00:46;3.60;;;2.45;;
74523;SDS011;63074;44.696;10.358;2022-08-25T19:03:13;5.85;;;2.50;;
74523;SDS011;63074;44.696;10.358;2022-08-25T19:05:41;5.05;;;2.53;;
74523;SDS011;63074;44.696;10.358;2022-08-25T19:10:35;5.78;;;2.13;;
74523;SDS011;63074;44.696;10.358;2022-08-25T19:13:03;5.75;;;2.28;;
74523;SDS011;63074;44.696;10.358;2022-08-25T19:15:29;4.85;;;2.53;;
74523;SDS011;63074;44.696;10.358;2022-08-25T19:17:56;6.97;;;2.78;;
74523;SDS011;63074;44.696;10.358;2022-08-25T19:20:23;5.13;;;2.55;;
74523;SDS011;63074;44.696;10.358;2022-08-25T19:22:49;3.92;;;2.22;;
74523;SDS011;63074;44.696;10.358;2022-08-25T19:25:16;8.00;;;2.50;;
74523;SDS011;63074;44.696;10.358;2022-08-25T19:27:43;5.82;;;2.47;;
74523;SDS011;63074;44.696;10.358;2022-08-25T19:30:10;7.38;;;2.90;;
74523;SDS011;63074;44.696;10.358;2022-08-25T19:32:37;6.28;;;2.75;;
74523;SDS011;63074;44.696;10.358;2022-08-25T19:35:08;4.63;;;2.72;;
74523;SDS011;63074;44.696;10.358;2022-08-25T19:37:36;4.43;;;2.60;;
74523;SDS011;63074;44.696;10.358;2022-08-25T19:40:03;6.55;;;2.92;;
74523;SDS011;63074;44.696;10.358;2022-08-25T19:42:30;6.35;;;2.58;;
74523;SDS011;63074;44.696;10.358;2022-08-25T19:44:57;6.25;;;2.58;;
74523;SDS011;63074;44.696;10.358;2022-08-25T19:49:48;5.95;;;2.83;;
74523;SDS011;63074;44.696;10.358;2022-08-25T19:52:14;6.43;;;2.90;;
74523;SDS011;63074;44.696;10.358;2022-08-25T19:54:43;6.53;;;3.10;;
74523;SDS011;63074;44.696;10.358;2022-08-25T19:57:12;5.03;;;2.97;;
74523;SDS011;63074;44.696;10.358;2022-08-25T19:59:40;5.38;;;2.75;;
74523;SDS011;63074;44.696;10.358;2022-08-25T20:02:19;6.70;;;3.30;;
74523;SDS011;63074;44.696;10.358;2022-08-25T20:04:49;5.18;;;2.80;;
74523;SDS011;63074;44.696;10.358;2022-08-25T20:07:21;5.43;;;2.13;;
74523;SDS011;63074;44.696;10.358;2022-08-25T20:09:48;4.72;;;2.90;;
74523;SDS011;63074;44.696;10.358;2022-08-25T20:12:15;6.70;;;2.75;;
74523;SDS011;63074;44.696;10.358;2022-08-25T20:14:41;4.22;;;2.20;;
74523;SDS011;63074;44.696;10.358;2022-08-25T20:17:08;3.63;;;2.63;;
74523;SDS011;63074;44.696;10.358;2022-08-25T20:19:33;4.35;;;2.72;;
74523;SDS011;63074;44.696;10.358;2022-08-25T20:21:59;4.65;;;3.00;;
74523;SDS011;63074;44.696;10.358;2022-08-25T20:24:24;4.22;;;2.40;;
74523;SDS011;63074;44.696;10.358;2022-08-25T20:27:08;10.23;;;3.15;;
74523;SDS011;63074;44.696;10.358;2022-08-25T20:29:34;6.63;;;2.80;;
74523;SDS011;63074;44.696;10.358;2022-08-25T20:32:00;3.72;;;2.67;;
74523;SDS011;63074;44.696;10.358;2022-08-25T20:34:28;4.25;;;2.33;;
74523;SDS011;63074;44.696;10.358;2022-08-25T20:36:54;4.13;;;2.38;;
74523;SDS011;63074;44.696;10.358;2022-08-25T20:39:20;7.93;;;2.72;;
74523;SDS011;63074;44.696;10.358;2022-08-25T20:46:46;3.38;;;1.95;;
74523;SDS011;63074;44.696;10.358;2022-08-25T20:49:12;4.60;;;2.22;;
74523;SDS011;63074;44.696;10.358;2022-08-25T20:51:38;3.85;;;2.22;;
74523;SDS011;63074;44.696;10.358;2022-08-25T20:54:04;4.53;;;1.98;;
74523;SDS011;63074;44.696;10.358;2022-08-25T20:56:30;3.85;;;1.90;;
74523;SDS011;63074;44.696;10.358;2022-08-25T20:58:56;3.78;;;2.13;;
74523;SDS011;63074;44.696;10.358;2022-08-25T21:01:24;3.72;;;2.05;;
74523;SDS011;63074;44.696;10.358;2022-08-25T21:04:02;2.92;;;1.88;;
74523;SDS011;63074;44.696;10.358;2022-08-25T21:06:29;6.93;;;2.22;;
74523;SDS011;63074;44.696;10.358;2022-08-25T21:08:55;3.70;;;1.90;;
74523;SDS011;63074;44.696;10.358;2022-08-25T21:11:20;3.70;;;1.85;;
74523;SDS011;63074;44.696;10.358;2022-08-25T21:13:48;5.38;;;2.13;;
74523;SDS011;63074;44.696;10.358;2022-08-25T21:16:14;3.40;;;1.67;;
74523;SDS011;63074;44.696;10.358;2022-08-25T21:18:39;5.35;;;2.50;;
74523;SDS011;63074;44.696;10.358;2022-08-25T21:21:05;4.80;;;2.35;;
74523;SDS011;63074;44.696;10.358;2022-08-25T21:23:39;5.63;;;2.33;;
74523;SDS011;63074;44.696;10.358;2022-08-25T21:26:10;6.20;;;2.40;;
74523;SDS011;63074;44.696;10.358;2022-08-25T21:28:37;4.07;;;2.42;;
74523;SDS011;63074;44.696;10.358;2022-08-25T21:31:06;6.63;;;2.50;;
74523;SDS011;63074;44.696;10.358;2022-08-25T21:33:33;6.80;;;2.30;;
74523;SDS011;63074;44.696;10.358;2022-08-25T21:35:59;4.25;;;2.42;;
74523;SDS011;63074;44.696;10.358;2022-08-25T21:38:25;5.78;;;2.22;;
74523;SDS011;63074;44.696;10.358;2022-08-25T21:40:52;5.43;;;3.22;;
74523;SDS011;63074;44.696;10.358;2022-08-25T21:43:19;5.45;;;2.65;;
74523;SDS011;63074;44.696;10.358;2022-08-25T21:45:44;5.43;;;2.97;;
74523;SDS011;63074;44.696;10.358;2022-08-25T21:48:09;4.25;;;2.72;;
74523;SDS011;63074;44.696;10.358;2022-08-25T21:50:36;5.07;;;2.47;;
74523;SDS011;63074;44.696;10.358;2022-08-25T21:53:03;4.10;;;2.28;;
74523;SDS011;63074;44.696;10.358;2022-08-25T21:55:29;7.80;;;2.70;;
74523;SDS011;63074;44.696;10.358;2022-08-25T21:57:55;4.47;;;3.03;;
74523;SDS011;63074;44.696;10.358;2022-08-25T22:00:21;5.07;;;3.03;;
74523;SDS011;63074;44.696;10.358;2022-08-25T22:02:47;5.15;;;2.78;;
74523;SDS011;63074;44.696;10.358;2022-08-25T22:05:13;4.78;;;2.80;;
74523;SDS011;63074;44.696;10.358;2022-08-25T22:07:39;6.07;;;2.70;;
74523;SDS011;63074;44.696;10.358;2022-08-25T22:10:05;4.38;;;2.67;;
74523;SDS011;63074;44.696;10.358;2022-08-25T22:12:33;5.60;;;2.47;;
74523;SDS011;63074;44.696;10.358;2022-08-25T22:14:59;7.90;;;2.75;;
74523;SDS011;63074;44.696;10.358;2022-08-25T22:17:24;7.47;;;2.75;;
74523;SDS011;63074;44.696;10.358;2022-08-25T22:19:50;5.97;;;3.28;;
74523;SDS011;63074;44.696;10.358;2022-08-25T22:22:15;5.53;;;3.13;;
74523;SDS011;63074;44.696;10.358;2022-08-25T22:24:41;6.50;;;3.47;;
74523;SDS011;63074;44.696;10.358;2022-08-25T22:27:07;5.03;;;3.42;;
74523;SDS011;63074;44.696;10.358;2022-08-25T22:29:33;6.53;;;2.47;;
74523;SDS011;63074;44.696;10.358;2022-08-25T22:31:59;5.60;;;2.60;;
74523;SDS011;63074;44.696;10.358;2022-08-25T22:34:24;4.82;;;2.53;;
74523;SDS011;63074;44.696;10.358;2022-08-25T22:36:50;5.88;;;2.67;;
74523;SDS011;63074;44.696;10.358;2022-08-25T22:39:15;5.50;;;3.00;;
74523;SDS011;63074;44.696;10.358;2022-08-25T22:41:41;5.63;;;3.20;;
74523;SDS011;63074;44.696;10.358;2022-08-25T22:44:06;8.18;;;3.55;;
74523;SDS011;63074;44.696;10.358;2022-08-25T22:46:32;7.95;;;3.45;;
74523;SDS011;63074;44.696;10.358;2022-08-25T22:48:58;7.03;;;3.10;;
74523;SDS011;63074;44.696;10.358;2022-08-25T22:51:25;5.97;;;2.90;;
74523;SDS011;63074;44.696;10.358;2022-08-25T22:53:52;6.45;;;3.53;;
74523;SDS011;63074;44.696;10.358;2022-08-25T22:56:23;7.40;;;4.15;;
74523;SDS011;63074;44.696;10.358;2022-08-25T23:01:19;7.55;;;4.40;;
74523;SDS011;63074;44.696;10.358;2022-08-25T23:03:45;7.53;;;3.58;;
74523;SDS011;63074;44.696;10.358;2022-08-25T23:06:11;6.93;;;3.00;;
74523;SDS011;63074;44.696;10.358;2022-08-25T23:08:39;6.78;;;3.35;;
74523;SDS011;63074;44.696;10.358;2022-08-25T23:11:06;7.30;;;3.63;;
74523;SDS011;63074;44.696;10.358;2022-08-25T23:13:34;6.47;;;3.15;;
74523;SDS011;63074;44.696;10.358;2022-08-25T23:15:59;5.57;;;3.03;;
74523;SDS011;63074;44.696;10.358;2022-08-25T23:18:25;6.90;;;3.17;;
74523;SDS011;63074;44.696;10.358;2022-08-25T23:20:52;5.13;;;3.25;;
74523;SDS011;63074;44.696;10.358;2022-08-25T23:23:36;5.10;;;2.90;;
74523;SDS011;63074;44.696;10.358;2022-08-25T23:26:01;5.88;;;3.25;;
74523;SDS011;63074;44.696;10.358;2022-08-25T23:28:27;6.97;;;3.10;;
74523;SDS011;63074;44.696;10.358;2022-08-25T23:30:53;6.32;;;3.05;;
74523;SDS011;63074;44.696;10.358;2022-08-25T23:33:18;4.80;;;3.03;;
74523;SDS011;63074;44.696;10.358;2022-08-25T23:35:45;5.13;;;3.13;;
74523;SDS011;63074;44.696;10.358;2022-08-25T23:38:11;5.68;;;3.17;;
74523;SDS011;63074;44.696;10.358;2022-08-25T23:40:38;6.32;;;3.88;;
74523;SDS011;63074;44.696;10.358;2022-08-25T23:43:10;6.18;;;3.38;;
74523;SDS011;63074;44.696;10.358;2022-08-25T23:45:37;6.90;;;4.13;;
74523;SDS011;63074;44.696;10.358;2022-08-25T23:48:04;5.78;;;3.08;;
74523;SDS011;63074;44.696;10.358;2022-08-25T23:50:37;7.15;;;3.65;;
74523;SDS011;63074;44.696;10.358;2022-08-25T23:53:03;6.28;;;3.45;;
74523;SDS011;63074;44.696;10.358;2022-08-25T23:55:29;5.60;;;3.25;;
74523;SDS011;63074;44.696;10.358;2022-08-25T23:57:54;5.68;;;2.85;;
